KPPA/PPA METAR and TAF weather

Enter ICAO airport designator
Station Type Date Time Source
KPPA METAR 2019/12/11 11:55 UTC NOAA

KPPA 111155Z AUTO 18005KT 10SM CLR M02/M07 A3029 RMK AO2 T10211067 10000 21025


Station Type Date Time Source
KPPA Decoded METAR 2019/12/11 11:55 UTC NOAA

Pampa, Perry Lefors Field Airport, TX, United States (KPPA) 35-36-46N 100-59-46W
Dec 11, 2019 - 06:55 AM EST / 2019.12.11 1155 UTC
Wind: from the S (180 degrees) at 6 MPH (5 KT):0
Visibility: 10 mile(s):0
Sky conditions: clear
Temperature: 28.2 F (-2.1 C)
Windchill: 21 F (-6 C):1
Dew Point: 19.9 F (-6.7 C)
Relative Humidity: 70%
Pressure (altimeter): 30.29 in. Hg (1025 hPa)
ob: KPPA 111155Z AUTO 18005KT 10SM CLR M02/M07 A3029 RMK AO2 T10211067 10000 21025
cycle: 12

Station Type Date Time Source
KPPA TAF UTC NOAA

Error!

Example: see airport list